Hoene Spring, Missouri
Current Conditions -  °F | °C
As of 7:54 AM on Thursday 27 Nov 2014 (Local Time) from KSUS Reporting Station
Haze Haze  
Wind Chill: 22°   Ceiling: 1700
Heat Index: 30°   Visibility: 4mi
Dew Point: 25°   Wind: 9mph
Humidity: 82%   Direction: 310°NW
Pressure: 30.45"   Gusts: NA
Location:  38.5081°N, 90.6523°W
Report Text: KSUS 271354Z 31008KT 4SM HZ OVC017 M01/M04 A3045 RMK AO2 SLP321 T10111039
Loading
Personal Weather Stations






























Interactive Weather Map New forecast layout! Learn more

10-Day Weather Forecast

Advertisements
Track Severe Weather on mobile